createdAt,value
2019-04-30T00:01:17.116Z,68.84
2019-04-30T00:04:01.107Z,69.13
2019-04-30T00:06:34.078Z,68.83
2019-04-30T00:08:55.438Z,70.10
2019-04-30T00:11:22.603Z,69.17
2019-04-30T00:13:50.224Z,69.07
2019-04-30T00:16:16.262Z,69.51
2019-04-30T00:18:55.442Z,69.32
2019-04-30T00:21:14.420Z,69.50
2019-04-30T00:23:37.667Z,69.39
2019-04-30T00:26:08.665Z,69.68
2019-04-30T00:28:31.469Z,69.56
2019-04-30T00:30:57.315Z,69.26
2019-04-30T00:33:27.468Z,70.07
2019-04-30T00:35:56.492Z,69.23
2019-04-30T00:38:18.785Z,69.99
2019-04-30T00:40:45.034Z,69.77
2019-04-30T00:43:11.010Z,69.80
2019-04-30T00:45:39.887Z,69.83
2019-04-30T00:48:06.017Z,69.79
2019-04-30T00:50:33.967Z,69.93
2019-04-30T00:52:59.845Z,69.81
2019-04-30T00:55:25.707Z,70.62
2019-04-30T00:57:51.582Z,70.13
2019-04-30T01:00:25.190Z,70.12
2019-04-30T01:02:47.398Z,70.53
2019-04-30T01:05:21.349Z,70.13
2019-04-30T01:07:50.785Z,69.90
2019-04-30T01:10:19.438Z,69.75
2019-04-30T01:12:47.309Z,69.63
2019-04-30T01:15:14.436Z,69.41
2019-04-30T01:17:40.879Z,70.23
2019-04-30T01:20:09.403Z,70.32
2019-04-30T01:22:35.479Z,70.39
2019-04-30T01:25:09.116Z,70.40
2019-04-30T01:27:30.381Z,69.90
2019-04-30T01:29:58.416Z,69.31
2019-04-30T01:32:24.391Z,70.29
2019-04-30T01:34:53.885Z,70.65
2019-04-30T01:37:24.746Z,70.70
2019-04-30T01:39:46.731Z,70.97
2019-04-30T01:42:12.600Z,70.87
2019-04-30T01:44:39.185Z,70.86
2019-04-30T01:47:05.221Z,71.75
2019-04-30T01:49:41.785Z,71.53
2019-04-30T01:52:00.904Z,71.06
2019-04-30T01:54:26.605Z,71.62
2019-04-30T01:57:00.386Z,72.01
2019-04-30T01:59:31.400Z,71.89
2019-04-30T02:01:58.570Z,72.66
2019-04-30T02:04:24.519Z,72.62
2019-04-30T02:06:50.419Z,72.28
2019-04-30T02:09:16.287Z,72.18
2019-04-30T02:11:42.122Z,71.79
2019-04-30T02:14:09.025Z,72.71
2019-04-30T02:16:34.948Z,73.54
2019-04-30T02:19:00.807Z,72.93
2019-04-30T02:21:26.770Z,72.60
2019-04-30T02:23:52.637Z,72.76
2019-04-30T02:26:18.895Z,72.67
2019-04-30T02:28:44.794Z,72.97
2019-04-30T02:31:10.678Z,72.69
2019-04-30T02:33:40.452Z,72.86
2019-04-30T02:36:24.917Z,72.98
2019-04-30T02:38:53.546Z,73.15
2019-04-30T02:41:20.927Z,73.09
2019-04-30T02:43:49.964Z,73.02
2019-04-30T02:46:19.192Z,73.11
2019-04-30T02:48:45.968Z,73.28
2019-04-30T02:51:13.459Z,73.36
2019-04-30T02:53:50.469Z,73.47
2019-04-30T02:56:20.151Z,73.93
2019-04-30T02:58:50.546Z,74.02
2019-04-30T03:01:16.059Z,73.92
2019-04-30T03:03:42.657Z,74.56
2019-04-30T03:06:11.419Z,74.51
2019-04-30T03:08:36.427Z,73.73
2019-04-30T03:11:02.498Z,73.90
2019-04-30T03:13:29.970Z,74.48
2019-04-30T03:15:55.908Z,73.92
2019-04-30T03:18:23.681Z,74.69
2019-04-30T03:20:51.442Z,74.45
2019-04-30T03:23:19.580Z,74.76
2019-04-30T03:25:45.073Z,74.77
2019-04-30T03:28:10.949Z,74.72
2019-04-30T03:30:41.383Z,74.93
2019-04-30T03:33:04.551Z,75.40
2019-04-30T03:35:32.201Z,75.14
2019-04-30T03:37:59.226Z,75.42
2019-04-30T03:40:26.102Z,75.49
2019-04-30T03:42:51.937Z,75.31
2019-04-30T03:45:20.233Z,75.40
2019-04-30T03:47:45.614Z,75.48
2019-04-30T03:50:11.464Z,75.75
2019-04-30T03:52:39.440Z,75.70
2019-04-30T03:55:05.835Z,75.77
2019-04-30T03:57:31.689Z,75.11
2019-04-30T03:59:59.396Z,75.54
2019-04-30T04:02:32.922Z,76.41
2019-04-30T04:05:01.224Z,75.12
2019-04-30T04:07:32.166Z,75.52
2019-04-30T04:10:11.822Z,75.87
2019-04-30T04:12:39.527Z,75.88
2019-04-30T04:15:05.623Z,75.95
2019-04-30T04:17:31.812Z,75.06
2019-04-30T04:19:59.920Z,75.32
2019-04-30T04:22:25.543Z,75.35
2019-04-30T04:24:51.429Z,75.74
2019-04-30T04:27:19.438Z,75.24
2019-04-30T04:29:45.204Z,75.43
2019-04-30T04:32:11.054Z,75.42
2019-04-30T04:34:36.987Z,75.78
2019-04-30T04:37:02.881Z,75.18
2019-04-30T04:39:29.790Z,75.87
2019-04-30T04:41:55.849Z,75.03
2019-04-30T04:44:21.703Z,75.31
2019-04-30T04:46:50.002Z,76.24
2019-04-30T04:49:15.383Z,76.77
2019-04-30T04:51:42.506Z,75.27
2019-04-30T04:54:10.359Z,76.31
2019-04-30T04:56:36.440Z,76.57
2019-04-30T04:59:02.392Z,76.64
2019-04-30T05:01:28.930Z,76.00
2019-04-30T05:03:54.934Z,76.94
2019-04-30T05:06:22.236Z,76.96
2019-04-30T05:08:49.326Z,77.13
2019-04-30T05:11:15.316Z,76.37
2019-04-30T05:13:41.178Z,76.10
2019-04-30T05:16:09.089Z,76.24
2019-04-30T05:18:34.790Z,77.19
2019-04-30T05:21:00.663Z,77.16
2019-04-30T05:23:26.544Z,77.29
2019-04-30T05:25:52.395Z,77.30
2019-04-30T05:28:18.908Z,77.42
2019-04-30T05:30:44.921Z,77.83
2019-04-30T05:33:10.787Z,78.17
2019-04-30T05:35:38.726Z,77.40
2019-04-30T05:38:04.424Z,77.64
2019-04-30T05:40:30.275Z,77.17
2019-04-30T05:42:56.176Z,76.82
2019-04-30T05:45:22.031Z,76.30
2019-04-30T05:47:50.214Z,76.25
2019-04-30T05:50:16.112Z,76.04
2019-04-30T05:52:41.956Z,76.84
2019-04-30T05:55:08.681Z,76.60
2019-04-30T05:57:34.661Z,75.88
2019-04-30T06:00:00.723Z,75.73
2019-04-30T06:02:30.608Z,75.73
2019-04-30T06:04:54.518Z,75.13
2019-04-30T06:07:20.589Z,74.51
2019-04-30T06:09:52.486Z,74.43
2019-04-30T06:12:23.238Z,73.71
2019-04-30T06:15:03.076Z,73.19
2019-04-30T06:17:30.044Z,73.82
2019-04-30T06:19:56.108Z,73.83
2019-04-30T06:22:21.967Z,73.52
2019-04-30T06:24:49.501Z,73.51
2019-04-30T06:27:15.636Z,73.01
2019-04-30T06:29:41.692Z,73.17
2019-04-30T06:32:08.687Z,72.54
2019-04-30T06:34:35.373Z,72.58
2019-04-30T06:37:01.422Z,72.64
2019-04-30T06:39:28.854Z,71.82
2019-04-30T06:42:04.894Z,72.19
2019-04-30T06:44:34.862Z,72.10
2019-04-30T06:46:51.734Z,71.59
2019-04-30T06:49:19.415Z,71.48
2019-04-30T06:51:45.339Z,70.73
2019-04-30T06:54:11.209Z,70.65
2019-04-30T06:56:38.750Z,70.20
2019-04-30T06:59:04.746Z,69.89
2019-04-30T07:01:30.596Z,69.74
2019-04-30T07:03:58.886Z,69.40
2019-04-30T07:06:29.551Z,69.53
2019-04-30T07:08:57.861Z,69.14
2019-04-30T07:11:26.124Z,69.26
2019-04-30T07:13:52.547Z,68.82
2019-04-30T07:16:18.981Z,68.90
2019-04-30T07:18:45.359Z,68.58
2019-04-30T07:21:11.224Z,68.49
2019-04-30T07:23:38.735Z,68.33
2019-04-30T07:26:05.452Z,68.23
2019-04-30T07:28:43.743Z,68.62
2019-04-30T07:31:10.640Z,68.45
2019-04-30T07:33:26.783Z,68.50
2019-04-30T07:35:52.654Z,69.12
2019-04-30T07:38:19.406Z,69.12
2019-04-30T07:40:45.642Z,68.59
2019-04-30T07:43:11.528Z,68.16
2019-04-30T07:45:39.282Z,68.65
2019-04-30T07:48:05.332Z,67.68
2019-04-30T07:50:32.155Z,68.88
2019-04-30T07:53:05.103Z,68.12
2019-04-30T07:55:26.365Z,67.91
2019-04-30T07:57:52.213Z,67.42
2019-04-30T08:00:19.407Z,67.93
2019-04-30T08:02:50.313Z,68.14
2019-04-30T08:05:19.271Z,67.67
2019-04-30T08:07:45.090Z,67.46
2019-04-30T08:10:11.264Z,68.50
2019-04-30T08:12:41.524Z,67.53
2019-04-30T08:15:06.772Z,67.78
2019-04-30T08:17:32.633Z,67.56
2019-04-30T08:19:58.872Z,68.86
2019-04-30T08:22:24.701Z,69.32
2019-04-30T08:24:50.568Z,69.07
2019-04-30T08:27:16.503Z,68.54
2019-04-30T08:29:42.302Z,69.10
2019-04-30T08:32:09.034Z,70.10
2019-04-30T08:34:34.946Z,69.51
2019-04-30T08:37:12.915Z,70.06
2019-04-30T08:39:29.489Z,70.52
2019-04-30T08:41:56.308Z,70.49
2019-04-30T08:44:22.179Z,70.65
2019-04-30T08:46:49.171Z,69.77
2019-04-30T08:49:15.322Z,70.56
2019-04-30T08:51:41.657Z,70.86
2019-04-30T08:54:09.514Z,70.80
2019-04-30T08:56:35.528Z,70.56
2019-04-30T08:59:01.376Z,71.53
2019-04-30T09:01:29.200Z,71.35
2019-04-30T09:03:55.038Z,72.06
2019-04-30T09:06:22.794Z,71.57
2019-04-30T09:08:49.131Z,71.22
2019-04-30T09:11:24.711Z,71.62
2019-04-30T09:13:42.773Z,71.40
2019-04-30T09:16:09.287Z,71.93
2019-04-30T09:18:35.176Z,72.41
2019-04-30T09:21:05.944Z,73.61
2019-04-30T09:23:42.579Z,73.29
2019-04-30T09:25:58.608Z,74.08
2019-04-30T09:28:24.344Z,73.95
2019-04-30T09:30:50.213Z,74.68
2019-04-30T09:33:16.076Z,73.78
2019-04-30T09:35:41.947Z,73.68
2019-04-30T09:38:09.199Z,73.34
2019-04-30T09:40:35.166Z,73.50
2019-04-30T09:43:01.023Z,73.05
2019-04-30T09:45:28.586Z,73.78
2019-04-30T09:47:54.575Z,73.95
2019-04-30T09:50:21.267Z,73.88
2019-04-30T09:52:47.171Z,74.21
2019-04-30T09:55:13.707Z,74.87
2019-04-30T09:57:39.549Z,74.46
2019-04-30T10:00:09.383Z,73.90
2019-04-30T10:02:35.365Z,74.04
2019-04-30T10:05:01.735Z,73.71
2019-04-30T10:07:29.339Z,74.04
2019-04-30T10:09:55.450Z,73.44
2019-04-30T10:12:21.424Z,73.43
2019-04-30T10:14:49.272Z,74.09
2019-04-30T10:17:16.953Z,73.84
2019-04-30T10:19:42.801Z,73.60
2019-04-30T10:22:09.071Z,73.80
2019-04-30T10:24:34.934Z,73.74
2019-04-30T10:27:00.809Z,73.51
2019-04-30T10:29:26.928Z,73.24
2019-04-30T10:31:52.785Z,72.06
2019-04-30T10:34:18.632Z,72.05
2019-04-30T10:36:44.486Z,71.80
2019-04-30T10:39:10.774Z,71.86
2019-04-30T10:41:36.705Z,71.82
2019-04-30T10:44:03.664Z,71.39
2019-04-30T10:46:29.531Z,72.53
2019-04-30T10:48:55.409Z,72.22
2019-04-30T10:51:22.090Z,71.95
2019-04-30T10:53:48.901Z,73.17
2019-04-30T10:56:15.743Z,72.26
2019-04-30T10:58:42.006Z,72.03
2019-04-30T11:01:09.601Z,72.40
2019-04-30T11:03:35.637Z,72.78
2019-04-30T11:06:01.516Z,72.43
2019-04-30T11:08:27.373Z,72.08
2019-04-30T11:10:53.243Z,71.83
2019-04-30T11:13:19.072Z,72.06
2019-04-30T11:15:45.953Z,71.55
2019-04-30T11:18:12.495Z,71.72
2019-04-30T11:20:39.700Z,71.54
2019-04-30T11:23:14.141Z,71.23
2019-04-30T11:25:35.042Z,71.35
2019-04-30T11:28:01.896Z,72.00
2019-04-30T11:30:29.753Z,71.57
2019-04-30T11:32:56.039Z,71.61
2019-04-30T11:35:22.524Z,71.07
2019-04-30T11:37:48.375Z,71.42
2019-04-30T11:40:16.402Z,71.63
2019-04-30T11:42:42.383Z,71.17
2019-04-30T11:45:09.231Z,70.94
2019-04-30T11:47:36.493Z,72.02
2019-04-30T11:50:05.759Z,72.33
2019-04-30T11:52:31.630Z,72.06
2019-04-30T11:54:59.486Z,72.22
2019-04-30T11:57:25.236Z,72.35
2019-04-30T11:59:51.093Z,72.21
2019-04-30T12:02:29.346Z,71.85
2019-04-30T12:04:55.306Z,72.25
2019-04-30T12:07:28.698Z,71.65
2019-04-30T12:10:13.132Z,71.47
2019-04-30T12:12:39.000Z,70.98
2019-04-30T12:15:05.836Z,70.80
2019-04-30T12:17:31.694Z,70.60
2019-04-30T12:19:58.675Z,70.32
2019-04-30T12:22:24.698Z,70.68
2019-04-30T12:25:02.339Z,70.40
2019-04-30T12:27:18.733Z,69.81
2019-04-30T12:29:44.704Z,70.14
2019-04-30T12:32:10.560Z,70.50
2019-04-30T12:34:36.433Z,69.80
2019-04-30T12:37:03.294Z,70.56
2019-04-30T12:39:30.119Z,70.77
2019-04-30T12:41:56.119Z,70.59
2019-04-30T12:44:22.008Z,70.54
2019-04-30T12:46:48.616Z,70.79
2019-04-30T12:49:14.540Z,70.32
2019-04-30T12:51:46.176Z,69.64
2019-04-30T12:54:16.701Z,69.17
2019-04-30T12:56:50.498Z,69.13
2019-04-30T12:59:16.367Z,69.54
2019-04-30T13:01:42.286Z,68.14
2019-04-30T13:04:09.803Z,68.14
2019-04-30T13:06:36.432Z,67.64
2019-04-30T13:09:06.998Z,68.71
2019-04-30T13:11:34.570Z,68.37
2019-04-30T13:14:01.310Z,68.93
2019-04-30T13:16:29.232Z,68.70
2019-04-30T13:18:55.218Z,68.74
2019-04-30T13:21:21.079Z,68.57
2019-04-30T13:23:46.945Z,68.23
2019-04-30T13:26:12.822Z,67.11
2019-04-30T13:28:43.137Z,66.02
2019-04-30T13:31:09.326Z,65.81
2019-04-30T13:33:38.899Z,65.43
2019-04-30T13:36:04.814Z,65.95
2019-04-30T13:38:32.618Z,65.98
2019-04-30T13:41:00.372Z,66.64
2019-04-30T13:43:44.511Z,66.37
2019-04-30T13:46:10.362Z,66.59
2019-04-30T13:48:36.231Z,66.66
2019-04-30T13:51:02.102Z,67.38
2019-04-30T13:53:28.439Z,66.51
2019-04-30T13:55:54.307Z,66.56
2019-04-30T13:58:20.204Z,67.48
2019-04-30T14:00:46.049Z,67.36
2019-04-30T14:03:16.397Z,67.40
2019-04-30T14:05:42.263Z,67.72
2019-04-30T14:08:15.581Z,67.28
2019-04-30T14:10:41.537Z,67.84
2019-04-30T14:13:08.496Z,66.85
2019-04-30T14:15:35.265Z,67.17
2019-04-30T14:18:01.121Z,67.42
2019-04-30T14:20:27.185Z,67.47
2019-04-30T14:22:53.051Z,67.68
2019-04-30T14:25:19.030Z,68.06
2019-04-30T14:27:52.300Z,67.37
2019-04-30T14:30:13.695Z,67.42
2019-04-30T14:32:39.708Z,66.69
2019-04-30T14:35:05.712Z,66.28
2019-04-30T14:37:31.890Z,66.49
2019-04-30T14:39:58.444Z,66.92
2019-04-30T14:42:25.698Z,66.94
2019-04-30T14:44:54.427Z,66.70
2019-04-30T14:47:23.352Z,66.86
2019-04-30T14:50:06.564Z,66.19
2019-04-30T14:52:34.313Z,65.72
2019-04-30T14:55:05.116Z,64.30
2019-04-30T14:57:35.745Z,63.57
2019-04-30T15:00:21.051Z,63.74
2019-04-30T15:03:09.356Z,64.79
2019-04-30T15:05:40.612Z,65.51
2019-04-30T15:08:03.273Z,65.68
2019-04-30T15:10:29.109Z,65.82
2019-04-30T15:12:58.153Z,66.06
2019-04-30T15:15:24.012Z,66.08
2019-04-30T15:17:49.887Z,66.59
2019-04-30T15:20:16.273Z,66.00
2019-04-30T15:22:46.573Z,65.87
2019-04-30T15:25:12.943Z,65.97
2019-04-30T15:27:45.032Z,65.90
2019-04-30T15:30:07.162Z,65.36
2019-04-30T15:32:34.925Z,64.20
2019-04-30T15:35:00.772Z,63.42
2019-04-30T15:37:28.569Z,63.44
2019-04-30T15:39:54.402Z,62.42
2019-04-30T15:42:20.764Z,62.93
2019-04-30T15:44:46.744Z,62.81
2019-04-30T15:47:12.689Z,62.37
2019-04-30T15:49:38.649Z,63.15
2019-04-30T15:52:04.930Z,62.81
2019-04-30T15:54:30.785Z,62.79
2019-04-30T15:57:00.250Z,62.59
2019-04-30T15:59:31.889Z,62.47
2019-04-30T16:02:02.433Z,62.28
2019-04-30T16:04:45.286Z,62.73
2019-04-30T16:07:11.147Z,62.68
2019-04-30T16:09:42.192Z,62.96
2019-04-30T16:12:09.946Z,62.94
2019-04-30T16:14:37.701Z,62.50
2019-04-30T16:17:08.068Z,63.27
2019-04-30T16:19:33.929Z,63.09
2019-04-30T16:21:59.773Z,62.93
2019-04-30T16:24:25.740Z,63.27
2019-04-30T16:26:52.781Z,63.30
2019-04-30T16:29:18.770Z,63.27
2019-04-30T16:31:44.760Z,64.31
2019-04-30T16:34:10.615Z,64.63
2019-04-30T16:36:36.507Z,63.70
2019-04-30T16:39:05.497Z,63.28
2019-04-30T16:41:32.060Z,63.66
2019-04-30T16:43:59.379Z,63.87
2019-04-30T16:46:26.380Z,63.65
2019-04-30T16:48:53.407Z,63.76
2019-04-30T16:51:19.281Z,63.73
2019-04-30T16:53:45.133Z,64.54
2019-04-30T16:56:10.983Z,64.84
2019-04-30T16:58:55.586Z,64.60
2019-04-30T17:01:21.683Z,64.78
2019-04-30T17:03:50.502Z,65.13
2019-04-30T17:06:20.922Z,65.25
2019-04-30T17:08:49.476Z,65.25
2019-04-30T17:11:17.264Z,65.55
2019-04-30T17:13:54.219Z,66.23
2019-04-30T17:16:21.978Z,65.90
2019-04-30T17:18:49.937Z,65.67
2019-04-30T17:21:15.612Z,65.31
2019-04-30T17:23:41.467Z,65.35
2019-04-30T17:26:07.330Z,65.38
2019-04-30T17:28:33.210Z,65.68
2019-04-30T17:30:59.064Z,65.03
2019-04-30T17:33:24.927Z,64.85
2019-04-30T17:35:50.865Z,64.77
2019-04-30T17:38:16.738Z,64.06
2019-04-30T17:40:42.594Z,64.23
2019-04-30T17:43:08.468Z,64.11
2019-04-30T17:45:34.350Z,64.38
2019-04-30T17:48:00.203Z,64.40
2019-04-30T17:50:26.077Z,64.40
2019-04-30T17:52:51.927Z,64.29
2019-04-30T17:55:19.503Z,63.81
2019-04-30T17:57:45.574Z,64.26
2019-04-30T18:00:18.649Z,64.68
2019-04-30T18:02:41.924Z,64.68
2019-04-30T18:05:09.155Z,64.77
2019-04-30T18:07:35.951Z,65.05
2019-04-30T18:10:05.811Z,64.93
2019-04-30T18:12:31.896Z,65.14
2019-04-30T18:14:57.741Z,64.34
2019-04-30T18:17:24.830Z,64.41
2019-04-30T18:20:10.925Z,64.00
2019-04-30T18:22:48.914Z,63.83
2019-04-30T18:25:22.568Z,63.84
2019-04-30T18:27:52.897Z,64.12
2019-04-30T18:30:21.224Z,64.89
2019-04-30T18:32:48.621Z,64.67
2019-04-30T18:35:14.447Z,64.85
2019-04-30T18:37:40.313Z,64.58
2019-04-30T18:40:06.405Z,64.66
2019-04-30T18:42:32.443Z,64.37
2019-04-30T18:44:58.293Z,64.26
2019-04-30T18:47:24.963Z,64.50
2019-04-30T18:49:50.810Z,64.32
2019-04-30T18:52:18.701Z,64.45
2019-04-30T18:54:44.485Z,64.26
2019-04-30T18:57:10.337Z,64.19
2019-04-30T18:59:36.189Z,64.07
2019-04-30T19:02:04.148Z,64.62
2019-04-30T19:04:30.025Z,64.98
2019-04-30T19:06:57.791Z,64.70
2019-04-30T19:09:25.566Z,64.63
2019-04-30T19:11:53.321Z,64.62
2019-04-30T19:14:21.098Z,64.38
2019-04-30T19:16:59.586Z,64.71
2019-04-30T19:19:40.284Z,65.08
2019-04-30T19:22:06.383Z,64.87
2019-04-30T19:24:32.246Z,64.66
2019-04-30T19:26:58.700Z,65.12
2019-04-30T19:29:24.576Z,65.41
2019-04-30T19:31:50.425Z,64.69
2019-04-30T19:34:16.337Z,64.28
2019-04-30T19:36:42.223Z,64.28
2019-04-30T19:39:09.171Z,65.08
2019-04-30T19:41:35.132Z,65.03
2019-04-30T19:44:01.100Z,64.81
2019-04-30T19:46:26.965Z,64.42
2019-04-30T19:48:52.833Z,64.41
2019-04-30T19:51:19.748Z,64.49
2019-04-30T19:53:45.797Z,64.85
2019-04-30T19:56:11.718Z,65.04
2019-04-30T19:58:50.072Z,65.48
2019-04-30T20:01:05.403Z,64.96
2019-04-30T20:03:31.323Z,66.09
2019-04-30T20:05:58.590Z,66.43
2019-04-30T20:08:24.477Z,66.40
2019-04-30T20:10:50.329Z,66.61
2019-04-30T20:13:30.905Z,66.50
2019-04-30T20:15:43.944Z,66.55
2019-04-30T20:18:09.829Z,67.31
2019-04-30T20:20:39.732Z,67.13
2019-04-30T20:23:05.369Z,67.12
2019-04-30T20:25:31.260Z,66.77
2019-04-30T20:27:57.128Z,67.17
2019-04-30T20:30:22.989Z,67.54
2019-04-30T20:32:49.097Z,66.58
2019-04-30T20:35:16.669Z,66.92
2019-04-30T20:38:00.873Z,67.40
2019-04-30T20:40:33.307Z,67.59
2019-04-30T20:42:58.211Z,68.27
2019-04-30T20:45:24.202Z,68.73
2019-04-30T20:47:50.064Z,69.02
2019-04-30T20:50:16.055Z,68.91
2019-04-30T20:55:22.132Z,68.25
2019-04-30T20:57:49.469Z,68.35
2019-04-30T21:00:15.970Z,69.20
2019-04-30T21:02:41.846Z,68.88
2019-04-30T21:05:07.928Z,68.82
2019-04-30T21:07:34.717Z,69.22
2019-04-30T21:10:00.676Z,69.16
2019-04-30T21:12:28.694Z,69.78
2019-04-30T21:14:54.301Z,70.03
2019-04-30T21:17:20.159Z,70.08
2019-04-30T21:19:46.013Z,69.90
2019-04-30T21:22:11.869Z,69.74
2019-04-30T21:24:37.751Z,69.58
2019-04-30T21:27:03.622Z,70.17
2019-04-30T21:29:29.631Z,69.31
2019-04-30T21:32:15.596Z,70.20
2019-04-30T21:34:52.516Z,70.49
2019-04-30T21:37:18.412Z,69.78
2019-04-30T21:39:44.344Z,70.59
2019-04-30T21:42:10.193Z,69.97
2019-04-30T21:44:36.054Z,70.50
2019-04-30T21:47:01.913Z,70.68
2019-04-30T21:49:27.848Z,70.95
2019-04-30T21:51:53.708Z,71.45
2019-04-30T21:54:19.568Z,71.40
2019-04-30T21:56:45.442Z,70.94
2019-04-30T21:59:23.557Z,70.04
2019-04-30T22:01:39.762Z,70.35
2019-04-30T22:04:05.633Z,70.45
2019-04-30T22:06:31.482Z,70.05
2019-04-30T22:08:58.572Z,70.39
2019-04-30T22:11:24.539Z,70.13
2019-04-30T22:13:50.388Z,70.38
2019-04-30T22:16:16.351Z,71.11
2019-04-30T22:18:44.224Z,71.26
2019-04-30T22:21:10.182Z,72.14
2019-04-30T22:23:36.119Z,71.52
2019-04-30T22:26:02.281Z,71.01
2019-04-30T22:28:28.134Z,70.68
2019-04-30T22:30:53.985Z,70.87
2019-04-30T22:33:19.851Z,71.30
2019-04-30T22:35:56.218Z,72.08
2019-04-30T22:38:23.977Z,71.21
2019-04-30T22:40:49.817Z,71.11
2019-04-30T22:43:15.671Z,71.41
2019-04-30T22:45:43.428Z,70.88
2019-04-30T22:48:09.282Z,71.19
2019-04-30T22:50:35.296Z,71.33
2019-04-30T22:53:01.165Z,71.89
2019-04-30T22:55:27.022Z,72.00
2019-04-30T22:57:52.896Z,71.28
2019-04-30T23:00:32.774Z,70.83
2019-04-30T23:03:03.271Z,71.53
2019-04-30T23:05:29.133Z,72.07
2019-04-30T23:07:55.007Z,71.57
2019-04-30T23:10:20.883Z,71.39
2019-04-30T23:12:46.739Z,71.54
2019-04-30T23:15:15.109Z,71.37
2019-04-30T23:17:41.003Z,71.19
2019-04-30T23:20:07.462Z,71.41
2019-04-30T23:22:33.314Z,71.27
2019-04-30T23:24:59.207Z,70.86
2019-04-30T23:27:25.063Z,71.18
2019-04-30T23:30:02.828Z,71.94
2019-04-30T23:32:18.682Z,71.93
2019-04-30T23:34:44.563Z,71.61
2019-04-30T23:37:10.458Z,71.99
2019-04-30T23:39:36.354Z,72.01
2019-04-30T23:42:02.182Z,72.21
2019-04-30T23:44:28.039Z,72.40
2019-04-30T23:46:53.911Z,72.77
2019-04-30T23:49:19.804Z,72.47
2019-04-30T23:51:45.661Z,72.59
2019-04-30T23:54:11.520Z,72.88
2019-04-30T23:56:37.382Z,72.99
2019-04-30T23:59:03.337Z,72.25
